createdAt,value
2022-09-02T00:02:07.980Z,1.20
2022-09-02T00:04:38.918Z,1.27
2022-09-02T00:07:08.182Z,1.20
2022-09-02T00:09:42.092Z,1.20
2022-09-02T00:12:16.881Z,1.10
2022-09-02T00:14:48.604Z,1.30
2022-09-02T00:17:16.357Z,1.90
2022-09-02T00:19:50.969Z,2.80
2022-09-02T00:25:08.709Z,3.23
2022-09-02T00:27:40.784Z,2.73
2022-09-02T00:30:11.088Z,2.67
2022-09-02T00:32:43.263Z,2.70
2022-09-02T00:35:14.274Z,2.40
2022-09-02T00:37:46.665Z,2.20
2022-09-02T00:40:24.109Z,1.80
2022-09-02T00:42:56.069Z,2.07
2022-09-02T00:45:31.024Z,2.00
2022-09-02T00:48:04.283Z,1.70
2022-09-02T00:50:38.192Z,1.60
2022-09-02T00:53:24.755Z,1.60
2022-09-02T00:55:53.450Z,1.50
2022-09-02T00:58:27.704Z,1.50
2022-09-02T01:00:58.909Z,1.43
2022-09-02T01:03:29.413Z,1.37
2022-09-02T01:06:03.431Z,1.30
2022-09-02T01:08:47.161Z,1.53
2022-09-02T01:11:21.190Z,1.33
2022-09-02T01:13:57.324Z,1.30
2022-09-02T01:16:35.419Z,1.40
2022-09-02T01:19:04.495Z,1.40
2022-09-02T01:21:37.417Z,1.17
2022-09-02T01:24:10.853Z,1.30
2022-09-02T01:26:41.881Z,1.30
2022-09-02T01:29:19.319Z,1.20
2022-09-02T01:31:54.860Z,1.13
2022-09-02T01:34:23.464Z,1.10
2022-09-02T01:36:55.162Z,1.40
2022-09-02T01:42:11.228Z,1.17
2022-09-02T01:44:44.383Z,1.30
2022-09-02T01:49:58.912Z,1.30
2022-09-02T01:52:27.448Z,1.13
2022-09-02T01:55:00.133Z,1.10
2022-09-02T01:57:31.677Z,1.40
2022-09-02T02:02:46.151Z,1.00
2022-09-02T02:05:19.100Z,1.40
2022-09-02T02:07:49.243Z,1.10
2022-09-02T02:10:22.509Z,1.20
2022-09-02T02:12:57.389Z,1.33
2022-09-02T02:17:58.095Z,1.23
2022-09-02T02:20:29.132Z,1.00
2022-09-02T02:23:00.864Z,1.30
2022-09-02T02:25:30.622Z,1.20
2022-09-02T02:28:11.508Z,1.37
2022-09-02T02:30:43.032Z,1.47
2022-09-02T02:33:14.945Z,1.70
2022-09-02T02:35:47.147Z,1.20
2022-09-02T02:38:17.094Z,1.07
2022-09-02T02:40:51.105Z,1.60
2022-09-02T02:43:24.130Z,1.30
2022-09-02T02:45:57.722Z,1.37
2022-09-02T02:48:29.119Z,1.40
2022-09-02T02:50:59.043Z,1.40
2022-09-02T02:53:33.400Z,1.33
2022-09-02T02:56:02.174Z,1.17
2022-09-02T02:58:32.014Z,1.40
2022-09-02T03:01:01.259Z,1.43
2022-09-02T03:03:33.969Z,1.63
2022-09-02T03:06:09.254Z,1.40
2022-09-02T03:08:39.200Z,1.83
2022-09-02T03:11:14.303Z,1.40
2022-09-02T03:13:46.079Z,1.50
2022-09-02T03:16:15.544Z,1.20
2022-09-02T03:18:45.681Z,1.43
2022-09-02T03:21:16.834Z,1.50
2022-09-02T03:23:46.745Z,1.50
2022-09-02T03:26:19.002Z,1.60
2022-09-02T03:28:52.583Z,1.57
2022-09-02T03:31:24.272Z,1.40
2022-09-02T03:34:00.547Z,1.50
2022-09-02T03:36:34.764Z,1.47
2022-09-02T03:39:04.790Z,1.50
2022-09-02T03:41:41.478Z,1.40
2022-09-02T03:44:12.687Z,1.80
2022-09-02T03:46:43.420Z,1.60
2022-09-02T03:49:15.449Z,1.40
2022-09-02T03:51:45.343Z,1.60
2022-09-02T03:54:24.002Z,1.60
2022-09-02T03:56:52.863Z,2.00
2022-09-02T03:59:23.408Z,1.67
2022-09-02T04:01:52.371Z,1.73
2022-09-02T04:04:25.010Z,1.50
2022-09-02T04:06:55.446Z,1.80
2022-09-02T04:09:26.503Z,1.60
2022-09-02T04:11:56.495Z,1.83
2022-09-02T04:14:30.287Z,1.70
2022-09-02T04:17:02.065Z,1.63
2022-09-02T04:19:32.350Z,1.80
2022-09-02T04:22:00.856Z,1.50
2022-09-02T04:24:31.854Z,1.80
2022-09-02T04:27:04.216Z,2.10
2022-09-02T04:29:35.459Z,1.90
2022-09-02T04:32:07.764Z,1.47
2022-09-02T04:34:38.581Z,1.77
2022-09-02T04:37:10.818Z,1.43
2022-09-02T04:39:43.307Z,1.50
2022-09-02T04:42:11.954Z,2.00
2022-09-02T04:44:39.222Z,1.53
2022-09-02T04:47:08.545Z,1.87
2022-09-02T04:49:40.909Z,1.67
2022-09-02T04:52:11.461Z,1.83
2022-09-02T04:54:39.021Z,2.10
2022-09-02T04:57:08.960Z,1.90
2022-09-02T04:59:41.268Z,1.53
2022-09-02T05:02:13.531Z,1.80
2022-09-02T05:04:43.409Z,1.97
2022-09-02T05:07:31.651Z,1.97
2022-09-02T05:10:09.606Z,1.90
2022-09-02T05:12:43.473Z,1.90
2022-09-02T05:15:14.534Z,1.90
2022-09-02T05:17:45.420Z,1.47
2022-09-02T05:20:17.581Z,4.50
2022-09-02T05:22:51.953Z,2.77
2022-09-02T05:25:23.079Z,3.17
2022-09-02T05:27:54.114Z,2.37
2022-09-02T05:30:23.513Z,2.47
2022-09-02T05:32:57.485Z,2.10
2022-09-02T05:35:27.723Z,2.00
2022-09-02T05:37:58.780Z,2.33
2022-09-02T05:40:30.916Z,2.10
2022-09-02T05:42:59.274Z,2.40
2022-09-02T05:45:26.776Z,1.90
2022-09-02T05:47:57.106Z,1.83
2022-09-02T05:50:29.733Z,1.90
2022-09-02T05:53:02.448Z,2.43
2022-09-02T05:55:30.068Z,2.03
2022-09-02T05:58:02.189Z,2.47
2022-09-02T06:03:23.074Z,2.30
2022-09-02T06:05:54.935Z,2.00
2022-09-02T06:08:23.427Z,2.23
2022-09-02T06:10:55.684Z,2.23
2022-09-02T06:13:30.115Z,2.53
2022-09-02T06:16:00.819Z,2.83
2022-09-02T06:18:32.432Z,2.67
2022-09-02T06:21:03.134Z,2.33
2022-09-02T06:23:32.093Z,2.30
2022-09-02T06:26:05.688Z,2.37
2022-09-02T06:28:34.646Z,2.03
2022-09-02T06:31:09.981Z,2.17
2022-09-02T06:33:41.790Z,4.00
2022-09-02T06:36:16.461Z,3.70
2022-09-02T06:38:52.066Z,3.43
2022-09-02T06:41:29.967Z,2.70
2022-09-02T06:44:04.135Z,2.67
2022-09-02T06:46:41.857Z,2.20
2022-09-02T06:49:12.799Z,1.83
2022-09-02T06:51:41.455Z,2.20
2022-09-02T06:54:19.793Z,2.00
2022-09-02T06:56:54.111Z,2.00
2022-09-02T06:59:24.236Z,2.00
2022-09-02T07:01:54.296Z,2.20
2022-09-02T07:04:41.102Z,2.30
2022-09-02T07:07:11.550Z,1.80
2022-09-02T07:09:41.722Z,2.20
2022-09-02T07:12:13.194Z,2.43
2022-09-02T07:14:44.164Z,1.97
2022-09-02T07:20:00.684Z,2.13
2022-09-02T07:22:35.187Z,1.80
2022-09-02T07:25:04.446Z,1.90
2022-09-02T07:27:36.084Z,2.07
2022-09-02T07:30:07.804Z,2.00
2022-09-02T07:32:38.923Z,1.93
2022-09-02T07:35:08.309Z,1.90
2022-09-02T07:37:38.087Z,1.77
2022-09-02T07:40:08.006Z,2.10
2022-09-02T07:42:39.287Z,2.00
2022-09-02T07:45:12.139Z,1.70
2022-09-02T07:47:39.306Z,2.07
2022-09-02T07:50:20.401Z,1.80
2022-09-02T07:55:40.687Z,1.60
2022-09-02T07:58:11.115Z,2.00
2022-09-02T08:00:45.480Z,2.20
2022-09-02T08:03:17.139Z,2.07
2022-09-02T08:05:49.815Z,2.30
2022-09-02T08:08:22.619Z,2.37
2022-09-02T08:10:52.847Z,2.03
2022-09-02T08:13:27.029Z,2.07
2022-09-02T08:15:57.388Z,2.00
2022-09-02T08:18:30.294Z,2.10
2022-09-02T08:21:02.133Z,2.33
2022-09-02T08:23:37.016Z,1.87
2022-09-02T08:26:09.515Z,1.90
2022-09-02T08:28:41.859Z,1.90
2022-09-02T08:31:25.875Z,2.20
2022-09-02T08:33:59.410Z,1.80
2022-09-02T08:36:29.847Z,2.20
2022-09-02T08:39:01.108Z,1.70
2022-09-02T08:41:36.597Z,1.80
2022-09-02T08:44:05.223Z,1.87
2022-09-02T08:46:47.256Z,1.90
2022-09-02T08:49:22.851Z,2.00
2022-09-02T08:51:56.438Z,1.97
2022-09-02T08:54:48.919Z,1.60
2022-09-02T08:57:22.506Z,1.70
2022-09-02T08:59:54.275Z,1.77
2022-09-02T09:05:19.559Z,1.80
2022-09-02T09:07:52.919Z,1.80
2022-09-02T09:10:39.733Z,1.80
2022-09-02T09:13:25.135Z,2.10
2022-09-02T09:16:05.221Z,2.43
2022-09-02T09:18:42.721Z,2.53
2022-09-02T09:21:13.243Z,3.03
2022-09-02T09:23:43.878Z,3.37
2022-09-02T09:26:22.765Z,3.63
2022-09-02T09:28:55.898Z,3.57
2022-09-02T09:31:31.808Z,3.57
2022-09-02T09:34:04.983Z,3.43
2022-09-02T09:36:55.241Z,3.90
2022-09-02T09:39:36.551Z,4.50
2022-09-02T09:45:16.962Z,4.30
2022-09-02T09:47:47.105Z,4.57
2022-09-02T09:50:22.796Z,4.50
2022-09-02T09:52:57.991Z,4.23
2022-09-02T09:55:34.939Z,4.50
2022-09-02T10:01:04.977Z,4.10
2022-09-02T10:03:36.258Z,4.03
2022-09-02T10:06:20.725Z,3.77
2022-09-02T10:09:00.350Z,3.67
2022-09-02T10:11:44.140Z,3.60
2022-09-02T10:14:16.912Z,3.40
2022-09-02T10:17:08.645Z,3.67
2022-09-02T10:19:56.580Z,4.10
2022-09-02T10:22:59.945Z,4.43
2022-09-02T10:25:53.714Z,3.93
2022-09-02T10:28:36.357Z,4.73
2022-09-02T10:31:29.215Z,5.17
2022-09-02T10:34:20.090Z,5.93
2022-09-02T10:37:11.066Z,5.70
2022-09-02T10:40:10.987Z,6.57
2022-09-02T10:42:49.454Z,6.80
2022-09-02T10:45:33.675Z,6.80
2022-09-02T10:48:22.177Z,8.40
2022-09-02T10:50:56.728Z,7.50
2022-09-02T10:53:38.867Z,7.43
2022-09-02T10:56:12.811Z,7.37
2022-09-02T10:58:55.115Z,6.73
2022-09-02T11:01:36.899Z,6.93
2022-09-02T11:04:35.180Z,5.87
2022-09-02T11:07:05.922Z,6.13
2022-09-02T11:09:48.797Z,6.17
2022-09-02T11:12:22.392Z,5.17
2022-09-02T11:17:55.043Z,5.17
2022-09-02T11:20:49.148Z,5.33
2022-09-02T11:23:23.925Z,4.90
2022-09-02T11:26:06.960Z,4.37
2022-09-02T11:28:47.411Z,4.10
2022-09-02T11:31:28.922Z,4.30
2022-09-02T11:34:10.591Z,4.60
2022-09-02T11:36:52.203Z,3.97
2022-09-02T11:39:49.518Z,3.87
2022-09-02T11:42:41.046Z,4.40
2022-09-02T11:45:25.241Z,3.40
2022-09-02T11:48:15.220Z,3.67
2022-09-02T11:50:49.367Z,3.63
2022-09-02T11:53:45.921Z,3.20
2022-09-02T11:56:21.929Z,3.13
2022-09-02T11:58:59.684Z,3.10
2022-09-02T12:01:49.278Z,3.03
2022-09-02T12:07:13.312Z,3.00
2022-09-02T12:09:58.377Z,2.80
2022-09-02T12:12:45.004Z,3.03
2022-09-02T12:15:24.142Z,3.37
2022-09-02T12:17:59.706Z,3.13
2022-09-02T12:20:51.095Z,3.40
2022-09-02T12:23:38.472Z,3.50
2022-09-02T12:26:15.852Z,3.53
2022-09-02T12:31:48.954Z,3.43
2022-09-02T12:34:25.538Z,3.80
2022-09-02T12:36:59.930Z,3.73
2022-09-02T12:39:38.048Z,3.80
2022-09-02T12:42:14.579Z,3.63
2022-09-02T12:45:09.363Z,3.07
2022-09-02T12:47:59.225Z,3.20
2022-09-02T12:50:53.249Z,3.07
2022-09-02T12:53:34.196Z,3.03
2022-09-02T12:56:05.537Z,2.97
2022-09-02T13:01:46.571Z,2.87
2022-09-02T13:04:32.035Z,2.67
2022-09-02T13:07:19.982Z,2.33
2022-09-02T13:10:24.343Z,2.63
2022-09-02T13:13:13.944Z,2.50
2022-09-02T13:16:33.003Z,2.13
2022-09-02T13:19:20.451Z,2.50
2022-09-02T13:22:19.087Z,2.33
2022-09-02T13:25:06.422Z,2.47
2022-09-02T13:27:52.437Z,2.57
2022-09-02T13:30:30.002Z,2.70
2022-09-02T13:33:07.293Z,2.90
2022-09-02T13:35:38.229Z,3.00
2022-09-02T13:38:22.807Z,3.00
2022-09-02T13:40:58.208Z,2.70
2022-09-02T13:43:31.008Z,3.00
2022-09-02T13:46:03.928Z,3.00
2022-09-02T13:48:41.843Z,2.90
2022-09-02T13:51:21.647Z,2.80
2022-09-02T13:54:21.787Z,2.90
2022-09-02T13:56:48.818Z,2.87
2022-09-02T13:59:40.164Z,2.70
2022-09-02T14:02:28.152Z,2.90
2022-09-02T14:05:07.683Z,2.73
2022-09-02T14:07:50.994Z,3.27
2022-09-02T14:10:24.715Z,3.10
2022-09-02T14:12:58.514Z,3.03
2022-09-02T14:15:36.786Z,2.90
2022-09-02T14:18:11.815Z,2.87
2022-09-02T14:21:05.556Z,2.63
2022-09-02T14:23:37.549Z,2.70
2022-09-02T14:26:10.076Z,2.30
2022-09-02T14:28:39.013Z,2.40
2022-09-02T14:31:09.079Z,2.17
2022-09-02T14:33:41.510Z,2.20
2022-09-02T14:36:11.230Z,2.30
2022-09-02T14:38:58.582Z,1.80
2022-09-02T14:41:40.833Z,2.40
2022-09-02T14:44:14.871Z,2.03
2022-09-02T14:46:53.847Z,1.87
2022-09-02T14:49:30.728Z,2.10
2022-09-02T14:52:03.850Z,1.80
2022-09-02T14:54:42.410Z,1.90
2022-09-02T14:57:34.122Z,1.80
2022-09-02T15:00:14.060Z,1.57
2022-09-02T15:02:47.946Z,1.57
2022-09-02T15:05:30.928Z,1.70
2022-09-02T15:08:02.956Z,1.70
2022-09-02T15:10:33.227Z,1.80
2022-09-02T15:13:03.029Z,1.60
2022-09-02T15:15:32.547Z,1.80
2022-09-02T15:18:03.434Z,1.37
2022-09-02T15:20:36.747Z,1.70
2022-09-02T15:23:06.892Z,1.57
2022-09-02T15:25:37.045Z,1.40
2022-09-02T15:28:09.392Z,1.60
2022-09-02T15:30:40.568Z,1.30
2022-09-02T15:33:14.737Z,1.40
2022-09-02T15:35:50.124Z,1.47
2022-09-02T15:38:22.551Z,1.50
2022-09-02T15:40:52.521Z,1.50
2022-09-02T15:43:26.342Z,1.70
2022-09-02T15:45:58.147Z,1.10
2022-09-02T15:48:33.257Z,1.30
2022-09-02T15:51:15.842Z,1.13
2022-09-02T15:53:50.718Z,1.23
2022-09-02T15:56:19.455Z,1.00
2022-09-02T15:59:02.367Z,1.47
2022-09-02T16:01:35.634Z,1.10
2022-09-02T16:04:07.918Z,1.23
2022-09-02T16:09:47.843Z,1.37
2022-09-02T16:12:17.007Z,1.10
2022-09-02T16:14:49.207Z,1.10
2022-09-02T16:17:24.803Z,1.30
2022-09-02T16:19:56.302Z,0.90
2022-09-02T16:22:27.085Z,1.00
2022-09-02T16:24:59.465Z,1.10
2022-09-02T16:27:47.947Z,1.13
2022-09-02T16:30:24.019Z,1.23
2022-09-02T16:33:01.080Z,1.20
2022-09-02T16:35:39.143Z,1.17
2022-09-02T16:38:11.658Z,1.20
2022-09-02T16:40:45.082Z,1.00
2022-09-02T16:43:14.867Z,1.13
2022-09-02T16:45:50.500Z,1.20
2022-09-02T16:48:25.848Z,1.10
2022-09-02T16:50:56.403Z,1.00
2022-09-02T16:53:28.224Z,1.20
2022-09-02T16:56:00.235Z,1.10
2022-09-02T16:58:41.417Z,1.03
2022-09-02T17:01:32.107Z,1.17
2022-09-02T17:04:02.198Z,1.13
2022-09-02T17:06:41.902Z,1.00
2022-09-02T17:09:09.913Z,1.10
2022-09-02T17:11:44.143Z,1.00
2022-09-02T17:14:17.827Z,1.10
2022-09-02T17:16:48.940Z,1.17
2022-09-02T17:19:21.774Z,1.10
2022-09-02T17:21:55.171Z,1.17
2022-09-02T17:24:27.433Z,1.20
2022-09-02T17:26:57.109Z,1.13
2022-09-02T17:32:23.224Z,1.00
2022-09-02T17:34:52.504Z,1.00
2022-09-02T17:37:23.219Z,0.93
2022-09-02T17:39:52.735Z,0.90
2022-09-02T17:42:24.792Z,1.00
2022-09-02T17:44:55.752Z,1.00
2022-09-02T17:47:39.212Z,1.10
2022-09-02T17:50:14.768Z,1.00
2022-09-02T17:52:46.508Z,0.93
2022-09-02T17:55:22.232Z,1.00
2022-09-02T17:58:08.865Z,1.00
2022-09-02T18:00:57.559Z,0.80
2022-09-02T18:03:51.598Z,0.97
2022-09-02T18:06:30.058Z,1.00
2022-09-02T18:09:04.887Z,1.00
2022-09-02T18:11:35.074Z,1.03
2022-09-02T18:14:04.311Z,0.90
2022-09-02T18:16:51.779Z,1.17
2022-09-02T18:19:39.641Z,1.03
2022-09-02T18:22:26.361Z,1.00
2022-09-02T18:28:16.005Z,0.90
2022-09-02T18:31:10.972Z,0.93
2022-09-02T18:33:48.021Z,1.10
2022-09-02T18:36:43.208Z,1.33
2022-09-02T18:39:37.968Z,1.20
2022-09-02T18:42:42.817Z,1.30
2022-09-02T18:45:22.117Z,1.40
2022-09-02T18:47:54.480Z,1.20
2022-09-02T18:50:51.912Z,1.30
2022-09-02T18:53:32.104Z,1.40
2022-09-02T18:56:04.908Z,1.23
2022-09-02T18:58:53.192Z,1.33
2022-09-02T19:01:28.461Z,1.60
2022-09-02T19:04:01.882Z,1.20
2022-09-02T19:06:39.363Z,1.10
2022-09-02T19:09:19.722Z,1.40
2022-09-02T19:11:52.938Z,1.57
2022-09-02T19:14:27.684Z,1.33
2022-09-02T19:16:58.038Z,1.47
2022-09-02T19:19:29.123Z,1.30
2022-09-02T19:22:01.294Z,1.10
2022-09-02T19:24:42.790Z,1.40
2022-09-02T19:27:25.943Z,1.30
2022-09-02T19:30:06.268Z,1.40
2022-09-02T19:32:43.158Z,1.40
2022-09-02T19:35:19.744Z,1.47
2022-09-02T19:37:51.834Z,1.40
2022-09-02T19:40:25.116Z,1.57
2022-09-02T19:42:56.847Z,1.40
2022-09-02T19:45:32.646Z,1.30
2022-09-02T19:48:08.621Z,1.77
2022-09-02T19:50:45.021Z,1.40
2022-09-02T19:53:25.842Z,1.30
2022-09-02T19:55:56.031Z,1.30
2022-09-02T19:58:27.161Z,1.50
2022-09-02T20:01:02.863Z,1.37
2022-09-02T20:03:33.311Z,1.50
2022-09-02T20:06:07.035Z,1.40
2022-09-02T20:08:40.874Z,1.20
2022-09-02T20:11:14.850Z,1.47
2022-09-02T20:13:49.589Z,1.40
2022-09-02T20:16:31.765Z,1.50
2022-09-02T20:18:59.449Z,1.30
2022-09-02T20:21:29.839Z,1.20
2022-09-02T20:24:08.239Z,1.40
2022-09-02T20:26:57.127Z,1.47
2022-09-02T20:29:48.672Z,1.20
2022-09-02T20:32:37.204Z,1.57
2022-09-02T20:35:14.387Z,1.60
2022-09-02T20:37:59.881Z,1.43
2022-09-02T20:40:50.377Z,1.57
2022-09-02T20:43:46.187Z,1.13
2022-09-02T20:46:14.492Z,1.40
2022-09-02T20:48:58.403Z,1.43
2022-09-02T20:51:50.937Z,1.10
2022-09-02T20:54:30.056Z,1.57
2022-09-02T20:57:15.958Z,1.53
2022-09-02T21:00:02.698Z,1.47
2022-09-02T21:02:37.797Z,1.60
2022-09-02T21:05:22.419Z,1.30
2022-09-02T21:07:56.755Z,1.33
2022-09-02T21:10:34.213Z,1.50
2022-09-02T21:13:29.336Z,1.23
2022-09-02T21:16:00.951Z,1.57
2022-09-02T21:18:33.483Z,1.80
2022-09-02T21:21:34.443Z,1.40
2022-09-02T21:24:20.224Z,1.30
2022-09-02T21:27:05.592Z,1.30
2022-09-02T21:29:53.874Z,1.43
2022-09-02T21:32:44.380Z,1.40
2022-09-02T21:35:20.342Z,1.20
2022-09-02T21:37:50.977Z,1.60
2022-09-02T21:40:25.074Z,1.40
2022-09-02T21:43:28.680Z,1.30
2022-09-02T21:46:08.034Z,1.50
2022-09-02T21:48:42.403Z,1.47
2022-09-02T21:51:23.037Z,1.33
2022-09-02T21:53:57.931Z,1.50
2022-09-02T21:56:52.824Z,1.20
2022-09-02T21:59:43.051Z,1.30
2022-09-02T22:02:39.577Z,1.50
2022-09-02T22:05:18.221Z,1.23
2022-09-02T22:07:58.479Z,1.43
2022-09-02T22:10:31.742Z,1.40
2022-09-02T22:13:06.570Z,1.40
2022-09-02T22:15:48.544Z,1.50
2022-09-02T22:18:21.213Z,1.23
2022-09-02T22:20:57.236Z,1.50
2022-09-02T22:23:32.604Z,1.33
2022-09-02T22:26:10.510Z,1.60
2022-09-02T22:28:52.769Z,1.70
2022-09-02T22:34:09.463Z,1.50
2022-09-02T22:36:56.552Z,1.40
2022-09-02T22:39:35.916Z,1.47
2022-09-02T22:42:19.130Z,1.30
2022-09-02T22:45:28.798Z,1.57
2022-09-02T22:48:48.859Z,1.53
2022-09-02T22:52:04.284Z,1.30
2022-09-02T22:54:36.624Z,1.03
2022-09-02T22:57:27.038Z,1.40
2022-09-02T23:00:20.760Z,1.33
2022-09-02T23:03:12.535Z,1.60
2022-09-02T23:05:45.517Z,1.40
2022-09-02T23:08:18.068Z,1.07
2022-09-02T23:11:07.131Z,1.50
2022-09-02T23:13:40.610Z,1.50
2022-09-02T23:16:14.171Z,1.50
2022-09-02T23:19:08.265Z,1.50
2022-09-02T23:22:09.543Z,1.77
2022-09-02T23:24:56.334Z,1.40
2022-09-02T23:27:50.057Z,1.77
2022-09-02T23:30:22.701Z,1.50
2022-09-02T23:33:16.631Z,1.30
2022-09-02T23:35:47.294Z,1.23
2022-09-02T23:38:44.419Z,1.60
2022-09-02T23:41:12.546Z,1.53
2022-09-02T23:43:52.729Z,1.77
2022-09-02T23:46:40.942Z,1.23
2022-09-02T23:49:12.439Z,1.50
2022-09-02T23:51:51.765Z,1.30
2022-09-02T23:54:34.138Z,1.63
2022-09-02T23:57:28.345Z,1.40
